sensor_id;sensor_type;location;lat;lon;timestamp;temperature;humidity
957;DHT22;465;48.802;9.224;2022-07-09T00:00:21;17.30;84.00
957;DHT22;465;48.802;9.224;2022-07-09T00:02:48;17.30;84.70
957;DHT22;465;48.802;9.224;2022-07-09T00:05:14;17.20;85.20
957;DHT22;465;48.802;9.224;2022-07-09T00:07:41;17.20;85.70
957;DHT22;465;48.802;9.224;2022-07-09T00:10:08;17.10;86.20
957;DHT22;465;48.802;9.224;2022-07-09T00:12:37;17.10;86.80
957;DHT22;465;48.802;9.224;2022-07-09T00:15:05;17.00;87.30
957;DHT22;465;48.802;9.224;2022-07-09T00:17:35;17.00;87.60
957;DHT22;465;48.802;9.224;2022-07-09T00:20:02;16.90;88.10
957;DHT22;465;48.802;9.224;2022-07-09T00:22:30;16.90;88.60
957;DHT22;465;48.802;9.224;2022-07-09T00:24:58;16.90;89.10
957;DHT22;465;48.802;9.224;2022-07-09T00:27:24;16.80;89.80
957;DHT22;465;48.802;9.224;2022-07-09T00:29:53;16.70;90.10
957;DHT22;465;48.802;9.224;2022-07-09T00:32:19;16.70;90.50
957;DHT22;465;48.802;9.224;2022-07-09T00:34:46;16.60;90.90
957;DHT22;465;48.802;9.224;2022-07-09T00:37:13;16.60;91.40
957;DHT22;465;48.802;9.224;2022-07-09T00:39:40;16.60;91.80
957;DHT22;465;48.802;9.224;2022-07-09T00:42:08;16.60;91.90
957;DHT22;465;48.802;9.224;2022-07-09T00:44:35;16.50;92.00
957;DHT22;465;48.802;9.224;2022-07-09T00:47:05;16.50;92.30
957;DHT22;465;48.802;9.224;2022-07-09T00:49:35;16.50;92.40
957;DHT22;465;48.802;9.224;2022-07-09T00:52:03;16.50;92.80
957;DHT22;465;48.802;9.224;2022-07-09T00:54:31;16.60;92.90
957;DHT22;465;48.802;9.224;2022-07-09T00:56:58;16.50;92.90
957;DHT22;465;48.802;9.224;2022-07-09T00:59:25;16.50;93.20
957;DHT22;465;48.802;9.224;2022-07-09T01:01:52;16.50;93.30
957;DHT22;465;48.802;9.224;2022-07-09T01:04:20;16.40;93.70
957;DHT22;465;48.802;9.224;2022-07-09T01:06:47;16.40;94.00
957;DHT22;465;48.802;9.224;2022-07-09T01:09:14;16.30;94.30
957;DHT22;465;48.802;9.224;2022-07-09T01:11:40;16.30;94.50
957;DHT22;465;48.802;9.224;2022-07-09T01:14:07;16.30;94.80
957;DHT22;465;48.802;9.224;2022-07-09T01:16:35;16.30;94.90
957;DHT22;465;48.802;9.224;2022-07-09T01:19:03;16.20;95.10
957;DHT22;465;48.802;9.224;2022-07-09T01:21:31;16.30;95.40
957;DHT22;465;48.802;9.224;2022-07-09T01:23:58;16.20;95.20
957;DHT22;465;48.802;9.224;2022-07-09T01:26:25;16.20;96.10
957;DHT22;465;48.802;9.224;2022-07-09T01:28:52;16.10;95.90
957;DHT22;465;48.802;9.224;2022-07-09T01:31:19;16.20;95.90
957;DHT22;465;48.802;9.224;2022-07-09T01:33:46;16.10;95.90
957;DHT22;465;48.802;9.224;2022-07-09T01:36:12;16.10;96.20
957;DHT22;465;48.802;9.224;2022-07-09T01:38:40;16.00;96.30
957;DHT22;465;48.802;9.224;2022-07-09T01:41:07;16.00;96.60
957;DHT22;465;48.802;9.224;2022-07-09T01:43:34;16.00;96.50
957;DHT22;465;48.802;9.224;2022-07-09T01:46:01;16.00;96.70
957;DHT22;465;48.802;9.224;2022-07-09T01:48:28;16.00;96.70
957;DHT22;465;48.802;9.224;2022-07-09T01:50:55;15.90;97.00
957;DHT22;465;48.802;9.224;2022-07-09T01:53:24;15.90;97.10
957;DHT22;465;48.802;9.224;2022-07-09T01:55:52;15.90;97.30
957;DHT22;465;48.802;9.224;2022-07-09T01:58:18;15.90;97.40
957;DHT22;465;48.802;9.224;2022-07-09T02:00:45;15.80;97.70
957;DHT22;465;48.802;9.224;2022-07-09T02:03:12;15.80;98.00
957;DHT22;465;48.802;9.224;2022-07-09T02:05:39;15.70;98.10
957;DHT22;465;48.802;9.224;2022-07-09T02:08:05;15.70;98.40
957;DHT22;465;48.802;9.224;2022-07-09T02:10:32;15.70;98.70
957;DHT22;465;48.802;9.224;2022-07-09T02:13:00;15.60;99.20
957;DHT22;465;48.802;9.224;2022-07-09T02:15:27;15.50;99.60
957;DHT22;465;48.802;9.224;2022-07-09T02:17:54;15.50;99.90
957;DHT22;465;48.802;9.224;2022-07-09T02:20:20;15.50;99.90
957;DHT22;465;48.802;9.224;2022-07-09T02:22:48;15.50;99.90
957;DHT22;465;48.802;9.224;2022-07-09T02:25:14;15.50;99.90
957;DHT22;465;48.802;9.224;2022-07-09T02:27:41;15.50;99.90
957;DHT22;465;48.802;9.224;2022-07-09T02:30:10;15.50;99.90
957;DHT22;465;48.802;9.224;2022-07-09T02:32:37;15.40;99.90
957;DHT22;465;48.802;9.224;2022-07-09T02:35:06;15.40;99.90
957;DHT22;465;48.802;9.224;2022-07-09T02:37:32;15.40;99.90
957;DHT22;465;48.802;9.224;2022-07-09T02:39:59;15.40;99.90
957;DHT22;465;48.802;9.224;2022-07-09T02:42:26;15.40;99.90
957;DHT22;465;48.802;9.224;2022-07-09T02:44:53;15.40;99.90
957;DHT22;465;48.802;9.224;2022-07-09T02:47:21;15.40;99.90
957;DHT22;465;48.802;9.224;2022-07-09T02:49:47;15.30;99.90
957;DHT22;465;48.802;9.224;2022-07-09T02:52:14;15.30;99.90
957;DHT22;465;48.802;9.224;2022-07-09T02:54:41;15.30;99.90
957;DHT22;465;48.802;9.224;2022-07-09T02:57:08;15.20;99.90
957;DHT22;465;48.802;9.224;2022-07-09T02:59:35;15.20;99.90
957;DHT22;465;48.802;9.224;2022-07-09T03:02:01;15.10;99.90
957;DHT22;465;48.802;9.224;2022-07-09T03:04:29;15.10;99.90
957;DHT22;465;48.802;9.224;2022-07-09T03:06:56;15.10;99.90
957;DHT22;465;48.802;9.224;2022-07-09T03:09:23;15.00;99.90
957;DHT22;465;48.802;9.224;2022-07-09T03:11:50;15.00;99.90
957;DHT22;465;48.802;9.224;2022-07-09T03:14:16;15.00;99.90
957;DHT22;465;48.802;9.224;2022-07-09T03:16:43;15.00;99.90
957;DHT22;465;48.802;9.224;2022-07-09T03:19:10;15.00;99.90
957;DHT22;465;48.802;9.224;2022-07-09T03:21:38;14.90;99.90
957;DHT22;465;48.802;9.224;2022-07-09T03:24:05;14.90;99.90
957;DHT22;465;48.802;9.224;2022-07-09T03:26:33;14.90;99.90
957;DHT22;465;48.802;9.224;2022-07-09T03:29:00;14.90;99.90
957;DHT22;465;48.802;9.224;2022-07-09T03:31:27;14.90;99.90
957;DHT22;465;48.802;9.224;2022-07-09T03:33:53;15.00;99.90
957;DHT22;465;48.802;9.224;2022-07-09T03:36:20;14.90;99.90
957;DHT22;465;48.802;9.224;2022-07-09T03:38:48;15.00;99.90
957;DHT22;465;48.802;9.224;2022-07-09T03:41:15;14.90;99.90
957;DHT22;465;48.802;9.224;2022-07-09T03:43:42;14.80;99.90
957;DHT22;465;48.802;9.224;2022-07-09T03:46:08;14.80;99.90
957;DHT22;465;48.802;9.224;2022-07-09T03:48:35;14.80;99.90
957;DHT22;465;48.802;9.224;2022-07-09T03:51:02;14.70;99.90
957;DHT22;465;48.802;9.224;2022-07-09T03:53:29;14.70;99.90
957;DHT22;465;48.802;9.224;2022-07-09T03:55:57;14.70;99.90
957;DHT22;465;48.802;9.224;2022-07-09T03:58:23;14.70;99.90
957;DHT22;465;48.802;9.224;2022-07-09T04:00:50;14.60;99.90
957;DHT22;465;48.802;9.224;2022-07-09T04:03:18;14.60;99.90
957;DHT22;465;48.802;9.224;2022-07-09T04:05:45;14.70;99.90
957;DHT22;465;48.802;9.224;2022-07-09T04:08:13;14.70;99.90
957;DHT22;465;48.802;9.224;2022-07-09T04:10:39;14.70;99.90
957;DHT22;465;48.802;9.224;2022-07-09T04:13:07;14.70;99.90
957;DHT22;465;48.802;9.224;2022-07-09T04:15:34;14.70;99.90
957;DHT22;465;48.802;9.224;2022-07-09T04:18:01;14.80;99.90
957;DHT22;465;48.802;9.224;2022-07-09T04:20:28;14.80;99.90
957;DHT22;465;48.802;9.224;2022-07-09T04:22:55;14.70;99.90
957;DHT22;465;48.802;9.224;2022-07-09T04:25:22;14.70;99.90
957;DHT22;465;48.802;9.224;2022-07-09T04:27:48;14.70;99.90
957;DHT22;465;48.802;9.224;2022-07-09T04:30:16;14.80;99.90
957;DHT22;465;48.802;9.224;2022-07-09T04:32:43;14.80;99.90
957;DHT22;465;48.802;9.224;2022-07-09T04:35:10;14.80;99.90
957;DHT22;465;48.802;9.224;2022-07-09T04:37:37;14.80;99.90
957;DHT22;465;48.802;9.224;2022-07-09T04:40:05;14.80;99.90
957;DHT22;465;48.802;9.224;2022-07-09T04:42:32;14.80;99.90
957;DHT22;465;48.802;9.224;2022-07-09T04:44:58;14.80;99.90
957;DHT22;465;48.802;9.224;2022-07-09T04:47:26;14.90;99.90
957;DHT22;465;48.802;9.224;2022-07-09T04:49:53;14.90;99.90
957;DHT22;465;48.802;9.224;2022-07-09T04:52:20;15.00;99.90
957;DHT22;465;48.802;9.224;2022-07-09T04:54:47;15.00;99.90
957;DHT22;465;48.802;9.224;2022-07-09T04:57:14;15.00;99.90
957;DHT22;465;48.802;9.224;2022-07-09T04:59:41;15.00;99.90
957;DHT22;465;48.802;9.224;2022-07-09T05:02:07;15.00;99.90
957;DHT22;465;48.802;9.224;2022-07-09T05:04:36;15.00;99.90
957;DHT22;465;48.802;9.224;2022-07-09T05:07:03;15.10;99.90
957;DHT22;465;48.802;9.224;2022-07-09T05:09:31;15.10;99.90
957;DHT22;465;48.802;9.224;2022-07-09T05:11:57;15.20;99.90
957;DHT22;465;48.802;9.224;2022-07-09T05:14:24;15.30;99.90
957;DHT22;465;48.802;9.224;2022-07-09T05:16:51;15.50;99.90
957;DHT22;465;48.802;9.224;2022-07-09T05:19:18;15.50;99.90
957;DHT22;465;48.802;9.224;2022-07-09T05:21:46;15.70;99.90
957;DHT22;465;48.802;9.224;2022-07-09T05:24:12;15.90;99.90
957;DHT22;465;48.802;9.224;2022-07-09T05:26:39;16.20;99.90
957;DHT22;465;48.802;9.224;2022-07-09T05:29:06;16.50;99.90
957;DHT22;465;48.802;9.224;2022-07-09T05:31:32;17.10;99.90
957;DHT22;465;48.802;9.224;2022-07-09T05:33:59;17.80;98.10
957;DHT22;465;48.802;9.224;2022-07-09T05:36:26;18.40;96.10
957;DHT22;465;48.802;9.224;2022-07-09T05:38:55;19.00;94.10
957;DHT22;465;48.802;9.224;2022-07-09T05:41:22;19.50;92.00
957;DHT22;465;48.802;9.224;2022-07-09T05:43:50;19.90;90.70
957;DHT22;465;48.802;9.224;2022-07-09T05:46:16;20.10;88.00
957;DHT22;465;48.802;9.224;2022-07-09T05:48:43;20.40;86.20
957;DHT22;465;48.802;9.224;2022-07-09T05:51:10;20.70;83.90
957;DHT22;465;48.802;9.224;2022-07-09T05:53:37;21.10;81.10
957;DHT22;465;48.802;9.224;2022-07-09T05:56:06;21.40;78.90
957;DHT22;465;48.802;9.224;2022-07-09T05:58:33;21.60;78.10
957;DHT22;465;48.802;9.224;2022-07-09T06:00:59;22.10;76.10
957;DHT22;465;48.802;9.224;2022-07-09T06:03:26;22.20;74.40
957;DHT22;465;48.802;9.224;2022-07-09T06:05:53;22.40;73.20
957;DHT22;465;48.802;9.224;2022-07-09T06:08:19;22.90;72.70
957;DHT22;465;48.802;9.224;2022-07-09T06:10:46;22.90;70.80
957;DHT22;465;48.802;9.224;2022-07-09T06:13:14;22.90;69.80
957;DHT22;465;48.802;9.224;2022-07-09T06:15:41;22.60;71.00
957;DHT22;465;48.802;9.224;2022-07-09T06:18:09;22.70;71.90
957;DHT22;465;48.802;9.224;2022-07-09T06:20:35;22.80;69.80
957;DHT22;465;48.802;9.224;2022-07-09T06:23:02;23.10;69.90
957;DHT22;465;48.802;9.224;2022-07-09T06:25:29;23.60;69.50
957;DHT22;465;48.802;9.224;2022-07-09T06:27:56;24.00;67.60
957;DHT22;465;48.802;9.224;2022-07-09T06:30:24;24.30;65.40
957;DHT22;465;48.802;9.224;2022-07-09T06:32:50;24.60;64.40
957;DHT22;465;48.802;9.224;2022-07-09T06:35:17;24.90;63.20
957;DHT22;465;48.802;9.224;2022-07-09T06:37:44;25.10;61.90
957;DHT22;465;48.802;9.224;2022-07-09T06:40:11;25.30;61.50
957;DHT22;465;48.802;9.224;2022-07-09T06:42:38;25.20;60.90
957;DHT22;465;48.802;9.224;2022-07-09T06:45:06;25.00;60.90
957;DHT22;465;48.802;9.224;2022-07-09T06:47:34;24.40;62.40
957;DHT22;465;48.802;9.224;2022-07-09T06:50:01;23.50;63.80
957;DHT22;465;48.802;9.224;2022-07-09T06:52:28;22.80;67.20
957;DHT22;465;48.802;9.224;2022-07-09T06:54:54;22.30;68.80
957;DHT22;465;48.802;9.224;2022-07-09T06:57:21;21.90;71.30
957;DHT22;465;48.802;9.224;2022-07-09T06:59:48;22.00;71.80
957;DHT22;465;48.802;9.224;2022-07-09T07:02:14;22.40;70.80
957;DHT22;465;48.802;9.224;2022-07-09T07:04:43;23.20;70.20
957;DHT22;465;48.802;9.224;2022-07-09T07:07:10;24.20;66.60
957;DHT22;465;48.802;9.224;2022-07-09T07:09:37;24.80;64.00
957;DHT22;465;48.802;9.224;2022-07-09T07:12:05;25.00;62.80
957;DHT22;465;48.802;9.224;2022-07-09T07:14:31;25.30;62.20
957;DHT22;465;48.802;9.224;2022-07-09T07:16:58;25.60;60.90
957;DHT22;465;48.802;9.224;2022-07-09T07:19:25;26.20;59.40
957;DHT22;465;48.802;9.224;2022-07-09T07:21:53;25.80;58.80
957;DHT22;465;48.802;9.224;2022-07-09T07:24:20;26.50;58.60
957;DHT22;465;48.802;9.224;2022-07-09T07:26:46;26.10;58.20
957;DHT22;465;48.802;9.224;2022-07-09T07:29:13;26.40;58.00
957;DHT22;465;48.802;9.224;2022-07-09T07:31:40;26.60;57.70
957;DHT22;465;48.802;9.224;2022-07-09T07:34:07;27.00;56.80
957;DHT22;465;48.802;9.224;2022-07-09T07:36:33;26.60;57.20
957;DHT22;465;48.802;9.224;2022-07-09T07:39:02;27.00;57.30
957;DHT22;465;48.802;9.224;2022-07-09T07:41:28;27.40;55.70
957;DHT22;465;48.802;9.224;2022-07-09T07:43:55;27.50;55.80
957;DHT22;465;48.802;9.224;2022-07-09T07:46:22;27.90;54.50
957;DHT22;465;48.802;9.224;2022-07-09T07:48:49;28.60;53.60
957;DHT22;465;48.802;9.224;2022-07-09T07:51:16;28.70;53.10
957;DHT22;465;48.802;9.224;2022-07-09T07:53:42;29.60;51.30
957;DHT22;465;48.802;9.224;2022-07-09T07:56:10;29.60;50.30
957;DHT22;465;48.802;9.224;2022-07-09T07:58:37;29.90;50.00
957;DHT22;465;48.802;9.224;2022-07-09T08:01:04;30.00;49.90
957;DHT22;465;48.802;9.224;2022-07-09T08:03:31;29.80;48.40
957;DHT22;465;48.802;9.224;2022-07-09T08:05:58;29.60;49.60
957;DHT22;465;48.802;9.224;2022-07-09T08:08:25;30.00;47.90
957;DHT22;465;48.802;9.224;2022-07-09T08:10:51;30.50;47.20
957;DHT22;465;48.802;9.224;2022-07-09T08:13:19;30.60;47.10
957;DHT22;465;48.802;9.224;2022-07-09T08:15:49;31.70;45.50
957;DHT22;465;48.802;9.224;2022-07-09T08:18:15;31.40;44.40
957;DHT22;465;48.802;9.224;2022-07-09T08:20:42;31.40;44.70
957;DHT22;465;48.802;9.224;2022-07-09T08:23:09;32.00;44.70
957;DHT22;465;48.802;9.224;2022-07-09T08:25:36;31.70;43.90
957;DHT22;465;48.802;9.224;2022-07-09T08:28:03;32.30;43.10
957;DHT22;465;48.802;9.224;2022-07-09T08:30:32;32.70;41.80
957;DHT22;465;48.802;9.224;2022-07-09T08:32:59;32.80;41.20
957;DHT22;465;48.802;9.224;2022-07-09T08:35:25;33.30;40.70
957;DHT22;465;48.802;9.224;2022-07-09T08:37:52;33.60;40.60
957;DHT22;465;48.802;9.224;2022-07-09T08:40:19;34.40;39.70
957;DHT22;465;48.802;9.224;2022-07-09T08:42:47;34.40;38.50
957;DHT22;465;48.802;9.224;2022-07-09T08:45:16;34.40;38.20
957;DHT22;465;48.802;9.224;2022-07-09T08:47:45;34.10;39.10
957;DHT22;465;48.802;9.224;2022-07-09T08:50:12;34.00;39.10
957;DHT22;465;48.802;9.224;2022-07-09T08:52:40;34.70;39.30
957;DHT22;465;48.802;9.224;2022-07-09T08:55:08;34.60;38.30
957;DHT22;465;48.802;9.224;2022-07-09T08:57:35;34.50;38.80
957;DHT22;465;48.802;9.224;2022-07-09T09:00:04;34.60;38.10
957;DHT22;465;48.802;9.224;2022-07-09T09:02:34;34.90;37.80
957;DHT22;465;48.802;9.224;2022-07-09T09:05:09;35.30;37.40
957;DHT22;465;48.802;9.224;2022-07-09T09:07:36;35.90;36.60
957;DHT22;465;48.802;9.224;2022-07-09T09:10:03;35.20;37.20
957;DHT22;465;48.802;9.224;2022-07-09T09:12:30;35.30;36.90
957;DHT22;465;48.802;9.224;2022-07-09T09:14:57;35.90;37.40
957;DHT22;465;48.802;9.224;2022-07-09T09:17:23;36.70;36.30
957;DHT22;465;48.802;9.224;2022-07-09T09:19:50;37.00;35.70
957;DHT22;465;48.802;9.224;2022-07-09T09:22:18;36.60;35.00
957;DHT22;465;48.802;9.224;2022-07-09T09:24:49;34.30;34.80
957;DHT22;465;48.802;9.224;2022-07-09T09:27:16;33.20;39.10
957;DHT22;465;48.802;9.224;2022-07-09T09:29:49;33.50;38.90
957;DHT22;465;48.802;9.224;2022-07-09T09:32:19;34.50;38.50
957;DHT22;465;48.802;9.224;2022-07-09T09:34:49;36.10;36.50
957;DHT22;465;48.802;9.224;2022-07-09T09:37:26;35.70;35.60
957;DHT22;465;48.802;9.224;2022-07-09T09:39:53;35.80;36.50
957;DHT22;465;48.802;9.224;2022-07-09T09:42:21;36.70;35.10
957;DHT22;465;48.802;9.224;2022-07-09T09:44:50;35.90;34.90
957;DHT22;465;48.802;9.224;2022-07-09T09:47:20;35.60;34.90
957;DHT22;465;48.802;9.224;2022-07-09T09:49:48;35.40;35.60
957;DHT22;465;48.802;9.224;2022-07-09T09:52:15;35.00;36.00
957;DHT22;465;48.802;9.224;2022-07-09T09:54:44;35.80;35.00
957;DHT22;465;48.802;9.224;2022-07-09T09:57:13;36.40;34.70
957;DHT22;465;48.802;9.224;2022-07-09T09:59:40;37.10;33.80
957;DHT22;465;48.802;9.224;2022-07-09T10:02:09;36.90;33.60
957;DHT22;465;48.802;9.224;2022-07-09T10:04:37;35.90;33.70
957;DHT22;465;48.802;9.224;2022-07-09T10:07:04;37.00;34.30
957;DHT22;465;48.802;9.224;2022-07-09T10:09:32;37.80;33.00
957;DHT22;465;48.802;9.224;2022-07-09T10:12:00;38.30;32.50
957;DHT22;465;48.802;9.224;2022-07-09T10:14:31;38.30;32.20
957;DHT22;465;48.802;9.224;2022-07-09T10:17:10;38.20;32.50
957;DHT22;465;48.802;9.224;2022-07-09T10:19:37;37.10;32.60
957;DHT22;465;48.802;9.224;2022-07-09T10:22:04;37.10;32.70
957;DHT22;465;48.802;9.224;2022-07-09T10:24:32;35.50;34.20
957;DHT22;465;48.802;9.224;2022-07-09T10:27:05;33.20;36.60
957;DHT22;465;48.802;9.224;2022-07-09T10:29:33;33.30;38.30
957;DHT22;465;48.802;9.224;2022-07-09T10:31:59;33.80;37.40
957;DHT22;465;48.802;9.224;2022-07-09T10:34:53;35.90;36.00
957;DHT22;465;48.802;9.224;2022-07-09T10:37:30;36.70;33.70
957;DHT22;465;48.802;9.224;2022-07-09T10:40:11;38.30;31.70
957;DHT22;465;48.802;9.224;2022-07-09T10:42:39;38.00;30.80
957;DHT22;465;48.802;9.224;2022-07-09T10:45:22;36.70;31.80
957;DHT22;465;48.802;9.224;2022-07-09T10:47:56;34.50;33.80
957;DHT22;465;48.802;9.224;2022-07-09T10:50:24;33.20;36.00
957;DHT22;465;48.802;9.224;2022-07-09T10:52:51;31.90;37.70
957;DHT22;465;48.802;9.224;2022-07-09T10:55:19;30.70;39.60
957;DHT22;465;48.802;9.224;2022-07-09T10:57:47;31.20;40.80
957;DHT22;465;48.802;9.224;2022-07-09T11:00:15;33.50;38.10
957;DHT22;465;48.802;9.224;2022-07-09T11:02:53;35.30;35.00
957;DHT22;465;48.802;9.224;2022-07-09T11:05:20;36.70;31.30
957;DHT22;465;48.802;9.224;2022-07-09T11:07:54;36.70;30.80
957;DHT22;465;48.802;9.224;2022-07-09T11:10:21;36.30;31.90
957;DHT22;465;48.802;9.224;2022-07-09T11:12:49;36.30;32.30
957;DHT22;465;48.802;9.224;2022-07-09T11:15:17;36.70;31.60
957;DHT22;465;48.802;9.224;2022-07-09T11:17:43;36.10;32.10
957;DHT22;465;48.802;9.224;2022-07-09T11:20:10;35.30;33.30
957;DHT22;465;48.802;9.224;2022-07-09T11:22:37;34.30;34.70
957;DHT22;465;48.802;9.224;2022-07-09T11:25:04;33.30;36.00
957;DHT22;465;48.802;9.224;2022-07-09T11:27:31;32.90;37.60
957;DHT22;465;48.802;9.224;2022-07-09T11:30:03;32.50;38.30
957;DHT22;465;48.802;9.224;2022-07-09T11:32:30;32.50;38.50
957;DHT22;465;48.802;9.224;2022-07-09T11:34:58;33.30;37.90
957;DHT22;465;48.802;9.224;2022-07-09T11:37:24;35.60;35.20
957;DHT22;465;48.802;9.224;2022-07-09T11:39:52;37.30;33.00
957;DHT22;465;48.802;9.224;2022-07-09T11:42:19;38.20;31.00
957;DHT22;465;48.802;9.224;2022-07-09T11:44:53;38.30;30.70
957;DHT22;465;48.802;9.224;2022-07-09T11:47:31;37.60;30.00
957;DHT22;465;48.802;9.224;2022-07-09T11:50:05;35.60;32.50
957;DHT22;465;48.802;9.224;2022-07-09T11:52:32;34.10;34.40
957;DHT22;465;48.802;9.224;2022-07-09T11:55:00;33.20;37.00
957;DHT22;465;48.802;9.224;2022-07-09T11:57:28;32.50;38.60
957;DHT22;465;48.802;9.224;2022-07-09T11:59:55;32.00;39.60
957;DHT22;465;48.802;9.224;2022-07-09T12:02:24;31.90;40.10
957;DHT22;465;48.802;9.224;2022-07-09T12:04:51;32.10;39.60
957;DHT22;465;48.802;9.224;2022-07-09T12:07:18;32.90;38.70
957;DHT22;465;48.802;9.224;2022-07-09T12:09:44;33.40;38.00
957;DHT22;465;48.802;9.224;2022-07-09T12:12:11;35.40;35.70
957;DHT22;465;48.802;9.224;2022-07-09T12:14:37;35.40;34.40
957;DHT22;465;48.802;9.224;2022-07-09T12:17:04;34.60;35.20
957;DHT22;465;48.802;9.224;2022-07-09T12:19:32;33.60;36.30
957;DHT22;465;48.802;9.224;2022-07-09T12:21:59;32.50;37.60
957;DHT22;465;48.802;9.224;2022-07-09T12:24:25;31.80;39.10
957;DHT22;465;48.802;9.224;2022-07-09T12:26:52;31.30;40.40
957;DHT22;465;48.802;9.224;2022-07-09T12:29:21;31.40;40.60
957;DHT22;465;48.802;9.224;2022-07-09T12:31:49;31.80;40.30
957;DHT22;465;48.802;9.224;2022-07-09T12:34:16;32.10;39.80
957;DHT22;465;48.802;9.224;2022-07-09T12:36:44;33.40;38.30
957;DHT22;465;48.802;9.224;2022-07-09T12:39:11;33.90;37.50
957;DHT22;465;48.802;9.224;2022-07-09T12:41:37;32.80;37.30
957;DHT22;465;48.802;9.224;2022-07-09T12:44:04;32.30;38.70
957;DHT22;465;48.802;9.224;2022-07-09T12:46:31;33.00;38.80
957;DHT22;465;48.802;9.224;2022-07-09T12:48:57;33.00;38.10
957;DHT22;465;48.802;9.224;2022-07-09T12:51:25;33.40;37.70
957;DHT22;465;48.802;9.224;2022-07-09T12:53:53;33.20;37.80
957;DHT22;465;48.802;9.224;2022-07-09T12:56:20;32.50;38.70
957;DHT22;465;48.802;9.224;2022-07-09T12:58:47;32.40;39.30
957;DHT22;465;48.802;9.224;2022-07-09T13:01:14;32.60;38.80
957;DHT22;465;48.802;9.224;2022-07-09T13:03:40;32.50;39.10
957;DHT22;465;48.802;9.224;2022-07-09T13:06:07;32.00;39.50
957;DHT22;465;48.802;9.224;2022-07-09T13:08:56;32.00;39.50
957;DHT22;465;48.802;9.224;2022-07-09T13:11:32;31.80;39.00
957;DHT22;465;48.802;9.224;2022-07-09T13:14:01;31.30;39.40
957;DHT22;465;48.802;9.224;2022-07-09T13:16:28;32.00;39.70
957;DHT22;465;48.802;9.224;2022-07-09T13:18:55;33.60;37.50
957;DHT22;465;48.802;9.224;2022-07-09T13:21:22;35.00;35.80
957;DHT22;465;48.802;9.224;2022-07-09T13:23:49;36.00;34.60
957;DHT22;465;48.802;9.224;2022-07-09T13:26:18;38.00;32.90
957;DHT22;465;48.802;9.224;2022-07-09T13:28:44;37.70;31.20
957;DHT22;465;48.802;9.224;2022-07-09T13:31:11;37.30;32.30
957;DHT22;465;48.802;9.224;2022-07-09T13:33:38;36.70;30.70
957;DHT22;465;48.802;9.224;2022-07-09T13:36:05;35.20;31.80
957;DHT22;465;48.802;9.224;2022-07-09T13:38:35;34.50;33.90
957;DHT22;465;48.802;9.224;2022-07-09T13:41:02;33.80;35.10
957;DHT22;465;48.802;9.224;2022-07-09T13:43:30;33.40;36.40
957;DHT22;465;48.802;9.224;2022-07-09T13:45:59;33.50;36.70
957;DHT22;465;48.802;9.224;2022-07-09T13:48:26;33.00;37.20
957;DHT22;465;48.802;9.224;2022-07-09T13:50:53;33.70;36.00
957;DHT22;465;48.802;9.224;2022-07-09T13:53:20;33.20;36.20
957;DHT22;465;48.802;9.224;2022-07-09T13:55:47;32.80;37.10
957;DHT22;465;48.802;9.224;2022-07-09T13:58:14;32.40;37.40
957;DHT22;465;48.802;9.224;2022-07-09T14:00:42;32.10;37.90
957;DHT22;465;48.802;9.224;2022-07-09T14:03:08;31.40;38.60
957;DHT22;465;48.802;9.224;2022-07-09T14:05:36;30.90;39.20
957;DHT22;465;48.802;9.224;2022-07-09T14:08:03;30.60;39.70
957;DHT22;465;48.802;9.224;2022-07-09T14:10:31;30.60;40.20
957;DHT22;465;48.802;9.224;2022-07-09T14:12:57;30.40;40.40
957;DHT22;465;48.802;9.224;2022-07-09T14:15:24;30.70;40.50
957;DHT22;465;48.802;9.224;2022-07-09T14:17:52;30.60;40.60
957;DHT22;465;48.802;9.224;2022-07-09T14:20:19;30.90;40.80
957;DHT22;465;48.802;9.224;2022-07-09T14:22:46;30.90;40.30
957;DHT22;465;48.802;9.224;2022-07-09T14:25:13;31.00;40.30
957;DHT22;465;48.802;9.224;2022-07-09T14:27:41;31.00;40.30
957;DHT22;465;48.802;9.224;2022-07-09T14:30:08;30.70;40.30
957;DHT22;465;48.802;9.224;2022-07-09T14:32:35;30.80;40.50
957;DHT22;465;48.802;9.224;2022-07-09T14:35:04;31.00;40.70
957;DHT22;465;48.802;9.224;2022-07-09T14:37:31;30.60;41.40
957;DHT22;465;48.802;9.224;2022-07-09T14:39:58;30.60;41.30
957;DHT22;465;48.802;9.224;2022-07-09T14:42:25;30.60;41.10
957;DHT22;465;48.802;9.224;2022-07-09T14:44:52;30.70;41.20
957;DHT22;465;48.802;9.224;2022-07-09T14:47:19;30.70;41.30
957;DHT22;465;48.802;9.224;2022-07-09T14:49:45;30.40;41.50
957;DHT22;465;48.802;9.224;2022-07-09T14:52:17;30.30;42.10
957;DHT22;465;48.802;9.224;2022-07-09T14:54:44;29.90;42.60
957;DHT22;465;48.802;9.224;2022-07-09T14:57:10;30.00;42.80
957;DHT22;465;48.802;9.224;2022-07-09T14:59:38;30.00;42.70
957;DHT22;465;48.802;9.224;2022-07-09T15:02:04;30.00;42.80
957;DHT22;465;48.802;9.224;2022-07-09T15:04:31;30.00;42.80
957;DHT22;465;48.802;9.224;2022-07-09T15:06:58;29.80;42.50
957;DHT22;465;48.802;9.224;2022-07-09T15:09:26;29.60;43.20
957;DHT22;465;48.802;9.224;2022-07-09T15:11:53;29.50;43.80
957;DHT22;465;48.802;9.224;2022-07-09T15:14:20;29.50;43.90
957;DHT22;465;48.802;9.224;2022-07-09T15:16:47;29.50;43.70
957;DHT22;465;48.802;9.224;2022-07-09T15:19:13;29.40;44.00
957;DHT22;465;48.802;9.224;2022-07-09T15:21:40;29.30;43.60
957;DHT22;465;48.802;9.224;2022-07-09T15:24:07;29.30;43.70
957;DHT22;465;48.802;9.224;2022-07-09T15:26:35;29.10;43.30
957;DHT22;465;48.802;9.224;2022-07-09T15:29:01;29.00;43.20
957;DHT22;465;48.802;9.224;2022-07-09T15:31:28;29.00;42.80
957;DHT22;465;48.802;9.224;2022-07-09T15:33:55;29.00;43.10
957;DHT22;465;48.802;9.224;2022-07-09T15:36:22;28.80;43.80
957;DHT22;465;48.802;9.224;2022-07-09T15:38:48;28.70;44.90
957;DHT22;465;48.802;9.224;2022-07-09T15:41:15;28.70;45.10
957;DHT22;465;48.802;9.224;2022-07-09T15:43:43;28.80;45.00
957;DHT22;465;48.802;9.224;2022-07-09T15:46:10;28.80;44.60
957;DHT22;465;48.802;9.224;2022-07-09T15:48:37;29.00;44.20
957;DHT22;465;48.802;9.224;2022-07-09T15:51:04;29.10;44.50
957;DHT22;465;48.802;9.224;2022-07-09T15:53:32;29.00;44.60
957;DHT22;465;48.802;9.224;2022-07-09T15:55:59;28.90;45.00
957;DHT22;465;48.802;9.224;2022-07-09T15:58:26;29.00;45.60
957;DHT22;465;48.802;9.224;2022-07-09T16:00:54;29.10;45.60
957;DHT22;465;48.802;9.224;2022-07-09T16:03:21;29.30;45.60
957;DHT22;465;48.802;9.224;2022-07-09T16:05:48;29.30;45.70
957;DHT22;465;48.802;9.224;2022-07-09T16:08:14;29.20;45.90
957;DHT22;465;48.802;9.224;2022-07-09T16:10:41;29.00;45.80
957;DHT22;465;48.802;9.224;2022-07-09T16:13:08;28.80;46.20
957;DHT22;465;48.802;9.224;2022-07-09T16:15:34;28.60;46.60
957;DHT22;465;48.802;9.224;2022-07-09T16:18:02;28.40;47.20
957;DHT22;465;48.802;9.224;2022-07-09T16:20:30;28.30;47.50
957;DHT22;465;48.802;9.224;2022-07-09T16:22:57;28.10;47.90
957;DHT22;465;48.802;9.224;2022-07-09T16:25:24;28.00;48.20
957;DHT22;465;48.802;9.224;2022-07-09T16:27:50;28.10;48.50
957;DHT22;465;48.802;9.224;2022-07-09T16:30:17;28.10;48.50
957;DHT22;465;48.802;9.224;2022-07-09T16:32:44;28.20;48.60
957;DHT22;465;48.802;9.224;2022-07-09T16:35:12;28.20;48.70